Time;durP1;ratioP1;P1;durP2;ratioP2;P2;SDS_P1;SDS_P2;PMS_P1;PMS_P2;Temp;Humidity;BMP_temperature;BMP_pressure;BME280_temperature;BME280_humidity;BME280_pressure;Samples;Min_cycle;Max_cycle;Signal;HPM_P1;HPM_P2
2022/11/18 00:01:15;;;;;;;1.08;0.75;;;20.10;51.90;;;;;;4132222;28;20153;-39
2022/11/18 00:03:39;;;;;;;0.90;0.40;;;20.10;51.90;;;;;;4131678;28;20046;-40
2022/11/18 00:06:01;;;;;;;;;;;20.10;51.90;;;;;;4126996;28;20053;-41
2022/11/18 00:08:25;;;;;;;1.42;0.47;;;20.10;51.90;;;;;;4134762;28;19964;-41
2022/11/18 00:10:47;;;;;;;0.30;0.30;;;20.10;51.90;;;;;;4131092;28;20125;-41
2022/11/18 00:16:04;;;;;;;0.30;0.30;;;20.10;51.80;;;;;;4129266;28;20041;-40
2022/11/18 00:18:26;;;;;;;;;;;20.20;51.90;;;;;;4132231;28;20103;-42
2022/11/18 00:20:49;;;;;;;0.43;0.30;;;20.20;51.90;;;;;;4119582;28;20312;-43
2022/11/18 00:23:12;;;;;;;1.42;0.75;;;20.20;51.80;;;;;;4132081;28;20037;-39
2022/11/18 00:25:35;;;;;;;0.70;0.43;;;20.20;51.80;;;;;;4132253;28;20046;-43
2022/11/18 00:27:57;;;;;;;0.38;0.38;;;20.20;51.70;;;;;;4134428;28;20065;-39
2022/11/18 00:30:20;;;;;;;1.38;0.50;;;20.20;51.70;;;;;;4134003;28;20054;-40
2022/11/18 00:32:43;;;;;;;0.57;0.30;;;20.20;51.70;;;;;;4133652;28;20071;-42
2022/11/18 00:35:06;;;;;;;0.60;0.32;;;20.20;51.70;;;;;;4119998;28;20030;-40
2022/11/18 00:37:29;;;;;;;0.75;0.30;;;20.20;51.70;;;;;;4132135;28;20042;-41
2022/11/18 00:39:51;;;;;;;0.52;0.25;;;20.30;51.70;;;;;;4134649;28;20171;-40
2022/11/18 00:44:54;;;;;;;1.65;0.70;;;20.30;51.60;;;;;;4134299;28;20413;-44
2022/11/18 00:47:17;;;;;;;0.68;0.30;;;20.30;51.60;;;;;;4133030;28;20465;-41
2022/11/18 00:49:39;;;;;;;0.85;0.63;;;20.30;51.50;;;;;;4133593;28;20048;-41
2022/11/18 00:52:02;;;;;;;1.10;0.50;;;20.30;51.50;;;;;;4127399;28;20778;-39
2022/11/18 00:54:25;;;;;;;0.93;0.50;;;20.30;51.50;;;;;;4129774;28;20078;-40
2022/11/18 00:56:48;;;;;;;0.85;0.50;;;20.30;51.50;;;;;;4132043;28;20034;-40
2022/11/18 00:59:11;;;;;;;0.80;0.60;;;20.30;51.50;;;;;;4132534;28;20125;-40
2022/11/18 01:01:34;;;;;;;1.00;0.43;;;20.30;51.50;;;;;;4127651;28;20623;-41
2022/11/18 01:03:56;;;;;;;0.35;0.30;;;20.40;51.50;;;;;;4132137;28;20069;-41
2022/11/18 01:06:19;;;;;;;0.77;0.40;;;20.30;52.10;;;;;;4132794;28;20033;-40
2022/11/18 01:08:42;;;;;;;0.95;0.50;;;20.40;51.60;;;;;;4134123;28;20049;-43
2022/11/18 01:13:45;;;;;;;1.70;0.60;;;20.40;51.40;;;;;;4133161;28;20061;-42
2022/11/18 01:16:07;;;;;;;1.73;0.52;;;20.40;51.30;;;;;;4134930;28;20044;-40
2022/11/18 01:18:31;;;;;;;1.25;0.50;;;20.40;51.40;;;;;;4131329;28;20061;-40
2022/11/18 01:20:55;;;;;;;0.40;0.38;;;20.40;52.00;;;;;;4131367;28;20050;-44
2022/11/18 01:23:17;;;;;;;;;;;20.50;51.40;;;;;;4131278;28;20074;-40
2022/11/18 01:25:42;;;;;;;0.75;0.63;;;20.50;51.60;;;;;;4131406;28;19913;-42
2022/11/18 01:28:05;;;;;;;1.10;0.60;;;20.50;52.00;;;;;;4131517;28;20112;-42
2022/11/18 01:30:28;;;;;;;1.40;0.50;;;20.60;52.10;;;;;;4131830;28;20038;-41
2022/11/18 01:32:50;;;;;;;1.75;0.63;;;20.60;51.90;;;;;;4134481;28;20042;-41
2022/11/18 01:35:13;;;;;;;1.00;0.30;;;20.60;51.90;;;;;;4132016;28;20042;-40
2022/11/18 01:37:35;;;;;;;0.95;0.50;;;20.60;51.70;;;;;;4133745;28;20428;-41
2022/11/18 01:39:58;;;;;;;0.82;0.47;;;20.60;51.70;;;;;;4136695;28;20069;-40
2022/11/18 01:42:21;;;;;;;1.77;0.50;;;20.60;51.60;;;;;;4134855;28;20061;-43
2022/11/18 01:45:08;;;;;;;1.30;0.57;;;20.70;51.60;;;;;;4136833;28;20037;-41
2022/11/18 01:47:41;;;;;;;0.98;0.65;;;20.70;51.50;;;;;;4135440;28;20037;-40
2022/11/18 01:50:06;;;;;;;1.10;0.55;;;20.70;51.40;;;;;;4127303;28;20479;-40
2022/11/18 01:52:30;;;;;;;0.95;0.40;;;20.70;51.40;;;;;;4130081;28;20046;-45
2022/11/18 01:54:54;;;;;;;;;;;20.70;51.40;;;;;;4134507;28;20076;-41
2022/11/18 01:57:21;;;;;;;0.50;0.40;;;20.80;51.40;;;;;;4130620;28;19999;-40
2022/11/18 01:59:48;;;;;;;0.35;0.30;;;20.80;51.30;;;;;;4130788;28;21079;-40
2022/11/18 02:02:13;;;;;;;0.40;0.40;;;20.80;51.30;;;;;;4130705;28;20044;-40
2022/11/18 02:04:37;;;;;;;0.32;0.30;;;20.80;51.30;;;;;;4132513;28;20046;-43
2022/11/18 02:07:00;;;;;;;0.55;0.40;;;20.80;51.20;;;;;;4132319;28;20034;-41
2022/11/18 02:09:23;;;;;;;1.20;0.40;;;20.80;51.20;;;;;;4131164;28;20063;-46
2022/11/18 02:11:55;;;;;;;0.40;0.40;;;20.90;51.30;;;;;;4132921;28;20318;-41
2022/11/18 02:14:21;;;;;;;0.85;0.43;;;20.90;51.30;;;;;;4131090;28;20120;-44
2022/11/18 02:17:08;;;;;;;0.90;0.40;;;20.90;51.30;;;;;;4136339;28;20049;-44
2022/11/18 02:19:46;;;;;;;0.85;0.43;;;20.90;51.20;;;;;;4128552;28;20052;-41
2022/11/18 02:22:22;;;;;;;0.43;0.38;;;20.90;51.20;;;;;;4129620;28;20042;-41
2022/11/18 02:25:03;;;;;;;0.40;0.35;;;21.00;51.20;;;;;;4129954;28;20100;-47
2022/11/18 02:27:44;;;;;;;0.60;0.30;;;21.00;51.10;;;;;;4129871;28;20424;-43
2022/11/18 02:30:10;;;;;;;0.73;0.50;;;21.00;51.10;;;;;;4131245;28;20144;-42
2022/11/18 02:32:46;;;;;;;0.90;0.35;;;21.00;51.10;;;;;;4127706;28;20491;-40
2022/11/18 02:35:19;;;;;;;1.00;0.40;;;21.00;51.10;;;;;;4128303;28;20037;-41
2022/11/18 02:37:45;;;;;;;0.40;0.40;;;21.00;51.10;;;;;;4129306;28;20042;-41
2022/11/18 02:40:23;;;;;;;0.95;0.40;;;21.00;51.10;;;;;;4128720;28;20045;-44
2022/11/18 02:42:56;;;;;;;0.80;0.40;;;21.10;51.10;;;;;;4126823;28;20563;-41
2022/11/18 02:45:20;;;;;;;1.42;0.50;;;21.10;51.10;;;;;;4128934;28;20116;-42
2022/11/18 02:47:47;;;;;;;0.95;0.55;;;21.10;51.10;;;;;;4130926;28;20115;-44
2022/11/18 02:50:14;;;;;;;1.60;0.50;;;21.10;51.10;;;;;;4129687;28;20567;-43
2022/11/18 02:52:40;;;;;;;0.40;0.40;;;21.10;51.00;;;;;;4128820;28;20087;-41
2022/11/18 02:55:06;;;;;;;1.38;0.47;;;21.20;51.00;;;;;;4128432;28;20541;-42
2022/11/18 02:57:31;;;;;;;0.32;0.32;;;21.20;51.00;;;;;;4128241;28;20159;-41
2022/11/18 02:59:53;;;;;;;1.38;0.52;;;21.20;51.00;;;;;;4133093;28;20037;-41
2022/11/18 03:02:18;;;;;;;1.45;0.65;;;21.20;51.00;;;;;;4130160;28;20409;-46
2022/11/18 03:04:41;;;;;;;0.88;0.40;;;21.20;51.00;;;;;;4119791;28;20049;-41
2022/11/18 03:07:11;;;;;;;0.90;0.40;;;21.30;51.00;;;;;;4124165;28;20058;-47
2022/11/18 03:09:41;;;;;;;1.25;0.50;;;21.20;51.00;;;;;;4125792;28;20046;-42
2022/11/18 03:12:18;;;;;;;1.02;0.40;;;21.30;51.00;;;;;;4124874;28;20072;-42
2022/11/18 03:14:47;;;;;;;1.15;0.60;;;21.20;51.00;;;;;;4129041;28;20048;-43
2022/11/18 03:17:17;;;;;;;0.75;0.60;;;21.30;51.00;;;;;;4125367;28;20073;-43
2022/11/18 03:19:59;;;;;;;0.65;0.50;;;21.30;51.00;;;;;;4119290;28;20761;-42
2022/11/18 03:22:27;;;;;;;2.38;1.20;;;21.30;51.00;;;;;;4126113;28;20073;-41
2022/11/18 03:25:32;;;;;;;2.45;1.00;;;21.40;51.20;;;;;;4123740;28;20034;-41
2022/11/18 03:28:00;;;;;;;4.20;1.33;;;21.40;51.40;;;;;;4076236;28;20738;-42
2022/11/18 03:30:24;;;;;;;2.60;1.20;;;21.40;51.50;;;;;;4125529;28;20410;-44
2022/11/18 03:32:57;;;;;;;2.35;0.93;;;21.40;51.50;;;;;;4118891;28;20129;-40
2022/11/18 03:35:24;;;;;;;3.47;1.15;;;21.40;51.50;;;;;;4128799;28;20484;-40
2022/11/18 03:37:49;;;;;;;1.10;0.73;;;21.50;51.60;;;;;;4133118;28;20453;-41
2022/11/18 03:40:21;;;;;;;2.95;1.35;;;21.50;51.60;;;;;;4126309;28;20172;-41
2022/11/18 03:42:49;;;;;;;2.90;1.27;;;21.50;51.40;;;;;;4128909;28;20046;-40
2022/11/18 03:45:36;;;;;;;3.05;1.13;;;21.50;51.40;;;;;;4118128;28;20173;-41
2022/11/18 03:48:09;;;;;;;4.18;1.42;;;21.60;51.40;;;;;;4131665;28;20049;-44
2022/11/18 03:50:37;;;;;;;1.17;0.80;;;21.60;51.40;;;;;;4117794;28;20038;-41
2022/11/18 03:53:01;;;;;;;2.28;1.33;;;21.60;51.30;;;;;;4131528;28;20185;-40
2022/11/18 03:55:30;;;;;;;1.85;0.80;;;21.70;51.60;;;;;;4136573;28;20045;-41
2022/11/18 03:58:19;;;;;;;1.65;0.75;;;21.80;52.00;;;;;;4123735;28;21167;-43
2022/11/18 04:00:46;;;;;;;2.03;1.08;;;21.80;52.00;;;;;;4126799;28;20117;-41
2022/11/18 04:03:10;;;;;;;2.92;0.90;;;21.90;51.80;;;;;;4122473;28;20432;-40
2022/11/18 04:05:37;;;;;;;1.90;0.63;;;21.90;51.80;;;;;;4126150;28;20045;-43
2022/11/18 04:08:02;;;;;;;1.88;1.20;;;21.90;51.80;;;;;;4121898;28;20046;-41
2022/11/18 04:10:34;;;;;;;2.38;0.90;;;22.00;51.80;;;;;;4128641;28;20049;-42
2022/11/18 04:13:02;;;;;;;2.25;0.52;;;22.00;51.70;;;;;;4126535;28;20054;-42
2022/11/18 04:15:25;;;;;;;1.80;1.00;;;22.00;51.50;;;;;;4130890;28;20044;-41
2022/11/18 04:17:47;;;;;;;1.20;0.65;;;22.10;51.50;;;;;;4124158;28;20398;-47
2022/11/18 04:20:20;;;;;;;1.77;0.73;;;22.10;51.30;;;;;;4125454;28;20565;-40
2022/11/18 04:22:43;;;;;;;1.80;0.70;;;22.20;51.30;;;;;;4125124;28;20165;-40
2022/11/18 04:25:06;;;;;;;2.00;0.82;;;22.20;51.20;;;;;;4122380;28;20037;-41
2022/11/18 04:27:28;;;;;;;1.35;0.60;;;22.30;51.20;;;;;;4124492;28;20575;-40
2022/11/18 04:29:51;;;;;;;1.90;0.90;;;22.30;51.10;;;;;;4125698;28;20040;-40
2022/11/18 04:32:13;;;;;;;1.25;0.82;;;22.30;50.90;;;;;;4129323;28;20420;-40
2022/11/18 04:34:36;;;;;;;1.30;0.57;;;22.40;50.80;;;;;;4122172;28;20469;-40
2022/11/18 04:36:59;;;;;;;1.98;0.60;;;22.40;50.80;;;;;;4124932;28;20489;-39
2022/11/18 04:39:21;;;;;;;2.20;0.82;;;22.50;50.70;;;;;;4124576;28;20048;-42
2022/11/18 04:41:56;;;;;;;1.20;0.50;;;22.50;50.60;;;;;;4128354;28;20046;-40
2022/11/18 04:44:19;;;;;;;1.52;0.70;;;22.60;50.50;;;;;;4128018;28;20066;-41
2022/11/18 04:46:42;;;;;;;1.10;0.80;;;22.60;50.50;;;;;;4122858;28;20125;-41
2022/11/18 04:49:05;;;;;;;1.00;0.43;;;22.70;50.50;;;;;;4129301;28;20048;-43
2022/11/18 04:51:27;;;;;;;1.77;0.90;;;22.70;50.40;;;;;;4125891;28;20042;-45
2022/11/18 04:53:50;;;;;;;1.20;0.50;;;22.80;50.40;;;;;;4130494;28;20097;-41
2022/11/18 04:56:12;;;;;;;1.83;0.50;;;22.80;50.30;;;;;;4127128;28;20100;-41
2022/11/18 04:58:35;;;;;;;1.35;0.50;;;22.80;50.10;;;;;;4127150;28;20042;-41
2022/11/18 05:00:57;;;;;;;1.02;0.60;;;22.90;50.10;;;;;;4124930;28;20043;-42
2022/11/18 05:03:20;;;;;;;1.33;0.65;;;22.90;50.00;;;;;;4127690;28;20050;-40
2022/11/18 05:05:42;;;;;;;1.52;0.75;;;23.00;49.90;;;;;;4125274;28;20102;-42
2022/11/18 05:08:05;;;;;;;1.63;0.65;;;23.00;49.90;;;;;;4122024;28;20041;-42
2022/11/18 05:10:28;;;;;;;0.88;0.50;;;23.00;49.80;;;;;;4123577;28;20034;-43
2022/11/18 05:12:51;;;;;;;1.92;0.88;;;23.10;49.80;;;;;;4125130;28;20034;-41
2022/11/18 05:15:14;;;;;;;0.73;0.50;;;23.10;49.70;;;;;;4126130;28;20042;-44
2022/11/18 05:17:36;;;;;;;2.47;0.90;;;23.20;49.60;;;;;;4130818;28;20042;-44
2022/11/18 05:19:59;;;;;;;1.40;0.75;;;23.20;49.60;;;;;;4129605;28;21248;-44
2022/11/18 05:22:22;;;;;;;1.45;0.60;;;23.30;49.50;;;;;;4133847;28;20384;-43
2022/11/18 05:24:44;;;;;;;1.60;0.75;;;23.30;49.40;;;;;;4116288;28;20079;-42
2022/11/18 05:27:07;;;;;;;2.58;0.82;;;23.30;49.30;;;;;;4132712;28;20029;-42
2022/11/18 05:29:29;;;;;;;3.22;0.80;;;23.40;49.30;;;;;;4131982;28;20077;-46
2022/11/18 05:31:52;;;;;;;2.28;0.80;;;23.40;49.20;;;;;;4128530;28;20149;-42
2022/11/18 05:34:15;;;;;;;2.90;1.23;;;23.40;49.20;;;;;;4130768;28;20437;-41
2022/11/18 05:36:38;;;;;;;1.80;0.68;;;23.50;49.20;;;;;;4129900;28;20037;-42
2022/11/18 05:39:01;;;;;;;1.63;0.70;;;23.60;49.30;;;;;;4132363;28;20506;-44
2022/11/18 05:44:05;;;;;;;1.80;0.80;;;23.60;49.20;;;;;;4132070;28;20038;-44
2022/11/18 05:46:29;;;;;;;2.97;1.10;;;23.70;49.20;;;;;;4131593;28;20452;-40
2022/11/18 05:48:52;;;;;;;2.30;1.00;;;23.70;49.20;;;;;;4133507;28;20128;-42
2022/11/18 05:51:15;;;;;;;2.13;0.82;;;23.80;49.20;;;;;;4132186;28;20038;-42
2022/11/18 05:53:37;;;;;;;2.35;0.60;;;23.80;49.10;;;;;;4133296;28;20213;-41
2022/11/18 05:56:27;;;;;;;1.58;0.75;;;23.80;49.00;;;;;;4132459;28;20041;-40
2022/11/18 05:58:50;;;;;;;1.92;0.90;;;23.90;48.90;;;;;;4133556;28;20038;-41
2022/11/18 06:01:17;;;;;;;1.38;0.90;;;23.90;48.90;;;;;;4126527;28;20631;-41
2022/11/18 06:03:41;;;;;;;1.85;0.82;;;24.00;48.80;;;;;;4138601;28;20066;-40
2022/11/18 06:06:08;;;;;;;2.78;1.02;;;24.00;48.80;;;;;;4137798;28;20087;-42
2022/11/18 06:11:53;;;;;;;1.50;0.70;;;24.00;48.80;;;;;;4136251;28;20531;-41
2022/11/18 06:14:26;;;;;;;0.95;0.50;;;24.00;48.70;;;;;;4130590;28;20132;-42
2022/11/18 06:16:54;;;;;;;3.30;0.90;;;24.10;48.70;;;;;;4128635;28;20225;-42
2022/11/18 06:19:19;;;;;;;3.33;0.77;;;24.10;48.70;;;;;;4130507;28;20042;-44
2022/11/18 06:21:42;;;;;;;1.38;0.60;;;24.10;48.80;;;;;;4131605;28;20042;-43
2022/11/18 06:24:06;;;;;;;2.78;0.68;;;24.10;48.80;;;;;;4123625;28;20041;-45
2022/11/18 06:26:29;;;;;;;1.92;1.08;;;24.10;49.00;;;;;;4123989;28;20058;-41
2022/11/18 06:28:51;;;;;;;4.32;1.13;;;24.10;49.20;;;;;;4125230;28;20076;-41
2022/11/18 06:31:15;;;;;;;1.33;0.60;;;24.10;49.30;;;;;;4121780;28;20030;-41
2022/11/18 06:33:38;;;;;;;3.10;0.80;;;24.10;49.40;;;;;;4124244;28;20605;-41
2022/11/18 06:36:00;;;;;;;3.65;0.98;;;24.10;49.50;;;;;;4121993;28;20449;-41
2022/11/18 06:38:26;;;;;;;4.00;1.20;;;24.10;49.50;;;;;;4124650;28;20229;-44
2022/11/18 06:40:48;;;;;;;2.85;0.82;;;24.10;49.70;;;;;;4121918;28;20034;-41
2022/11/18 06:48:33;;;;;;;4.32;0.90;;;24.10;49.80;;;;;;4123194;28;20089;-42
2022/11/18 06:50:56;;;;;;;2.83;1.02;;;24.00;49.80;;;;;;4121493;28;20092;-41
2022/11/18 06:53:18;;;;;;;2.83;1.00;;;24.00;49.90;;;;;;4122871;28;20041;-41
2022/11/18 06:55:41;;;;;;;4.72;1.15;;;24.10;50.60;;;;;;4120571;28;21162;-38
2022/11/18 06:58:03;;;;;;;3.53;1.10;;;24.10;50.30;;;;;;4121975;28;20850;-38
2022/11/18 07:00:26;;;;;;;6.45;1.70;;;24.10;50.40;;;;;;4123562;28;20125;-39
2022/11/18 07:02:48;;;;;;;3.85;1.55;;;24.10;50.70;;;;;;4123583;28;20449;-39
2022/11/18 07:05:11;;;;;;;4.53;0.93;;;24.10;51.00;;;;;;4123192;28;20128;-40
2022/11/18 07:07:36;;;;;;;7.75;1.35;;;24.10;51.00;;;;;;4121960;28;20485;-39
2022/11/18 07:09:59;;;;;;;4.97;1.27;;;24.10;51.20;;;;;;4130894;28;20085;-40
2022/11/18 07:12:21;;;;;;;6.35;1.02;;;24.20;51.50;;;;;;4130475;28;20052;-42
2022/11/18 07:14:44;;;;;;;6.28;1.63;;;24.20;51.40;;;;;;4131026;28;20030;-38
2022/11/18 07:17:06;;;;;;;4.18;1.30;;;24.20;51.40;;;;;;4131329;28;20050;-38
2022/11/18 07:19:29;;;;;;;4.43;1.67;;;24.20;51.20;;;;;;4128589;28;20429;-39
2022/11/18 07:21:51;;;;;;;9.77;1.17;;;24.20;51.00;;;;;;4132509;28;20077;-39
2022/11/18 07:24:15;;;;;;;2.22;1.20;;;24.20;51.00;;;;;;4114724;28;20054;-39
2022/11/18 07:26:38;;;;;;;5.20;1.60;;;24.20;50.90;;;;;;4130681;28;20489;-38
2022/11/18 07:29:00;;;;;;;6.10;1.17;;;24.10;51.20;;;;;;4131394;28;20511;-38
2022/11/18 07:31:23;;;;;;;5.68;1.20;;;24.20;51.50;;;;;;4132580;28;20034;-40
2022/11/18 07:33:47;;;;;;;6.22;1.38;;;24.20;51.50;;;;;;4133413;28;20568;-38
2022/11/18 07:36:15;;;;;;;2.95;1.13;;;24.20;51.70;;;;;;4133015;28;20587;-38
2022/11/18 07:38:38;;;;;;;10.73;1.10;;;24.20;51.80;;;;;;4132211;28;20041;-38
2022/11/18 07:41:05;;;;;;;7.60;1.08;;;24.20;51.70;;;;;;4133115;28;20044;-38
2022/11/18 07:43:28;;;;;;;4.57;1.08;;;24.30;51.90;;;;;;4133165;28;20569;-39
2022/11/18 07:45:50;;;;;;;4.57;1.33;;;24.30;52.00;;;;;;4131325;28;20180;-38
2022/11/18 07:48:13;;;;;;;4.85;1.25;;;24.30;52.00;;;;;;4131886;28;20434;-39
2022/11/18 07:50:35;;;;;;;11.30;2.20;;;24.30;52.20;;;;;;4133626;28;20034;-38
2022/11/18 07:52:58;;;;;;;6.15;0.93;;;24.30;52.40;;;;;;4132112;28;20405;-38
2022/11/18 07:55:20;;;;;;;23.38;1.75;;;24.30;52.60;;;;;;4132724;28;20120;-40
2022/11/18 07:57:43;;;;;;;8.90;1.40;;;24.40;52.70;;;;;;4132383;28;20038;-38
2022/11/18 08:00:06;;;;;;;12.82;1.90;;;24.40;52.90;;;;;;4131672;28;20505;-39
2022/11/18 08:02:29;;;;;;;5.25;1.00;;;24.40;52.90;;;;;;4130562;28;20038;-42
2022/11/18 08:04:51;;;;;;;20.20;1.67;;;24.40;52.80;;;;;;4131826;28;20041;-38
2022/11/18 08:07:14;;;;;;;5.93;1.20;;;24.40;52.80;;;;;;4131213;28;20034;-38
2022/11/18 08:09:36;;;;;;;5.53;1.08;;;24.40;52.90;;;;;;4133489;28;20042;-39
2022/11/18 08:11:59;;;;;;;7.05;1.20;;;24.40;53.00;;;;;;4125119;28;20033;-38
2022/11/18 08:14:23;;;;;;;6.32;0.98;;;24.40;53.00;;;;;;4125257;28;20072;-39
2022/11/18 08:16:45;;;;;;;9.77;1.58;;;24.30;52.90;;;;;;4123814;28;20034;-39
2022/11/18 08:19:07;;;;;;;9.43;1.55;;;24.30;53.10;;;;;;4124906;28;20060;-38
2022/11/18 08:21:30;;;;;;;9.77;1.67;;;24.40;53.10;;;;;;4125821;28;20037;-38
2022/11/18 08:23:55;;;;;;;4.03;0.88;;;24.40;53.20;;;;;;4126459;28;20572;-38
2022/11/18 08:26:19;;;;;;;7.53;1.15;;;24.40;53.20;;;;;;4123580;28;20041;-40
2022/11/18 08:28:45;;;;;;;5.45;0.90;;;24.40;53.20;;;;;;4121930;28;20038;-38
2022/11/18 08:31:33;;;;;;;9.65;0.80;;;24.30;53.20;;;;;;4122022;28;20058;-39
2022/11/18 08:33:58;;;;;;;3.33;0.75;;;24.30;53.30;;;;;;4117068;28;20118;-38
2022/11/18 08:36:24;;;;;;;11.43;1.58;;;24.30;53.30;;;;;;4124904;28;20038;-38
2022/11/18 08:38:47;;;;;;;7.90;1.15;;;24.30;53.60;;;;;;4123752;28;20038;-41
2022/11/18 08:41:32;;;;;;;8.63;0.95;;;24.40;53.50;;;;;;4123340;28;20097;-39
2022/11/18 08:43:54;;;;;;;5.75;1.10;;;24.40;53.50;;;;;;4125111;28;20088;-38
2022/11/18 08:46:17;;;;;;;5.75;0.73;;;24.40;53.50;;;;;;4122297;28;20077;-38
2022/11/18 08:48:40;;;;;;;3.63;0.82;;;24.40;53.40;;;;;;4122413;28;20034;-38
2022/11/18 08:51:02;;;;;;;3.53;1.02;;;24.40;53.50;;;;;;4121990;28;20104;-39
2022/11/18 08:53:25;;;;;;;5.28;0.93;;;24.40;53.40;;;;;;4123464;28;20050;-37
2022/11/18 08:55:53;;;;;;;4.30;0.80;;;24.40;53.30;;;;;;4123005;28;20053;-38
2022/11/18 08:58:16;;;;;;;1.08;0.40;;;24.40;53.40;;;;;;4123951;28;20042;-38
2022/11/18 09:00:38;;;;;;;10.90;1.20;;;24.40;53.40;;;;;;4124012;28;20048;-37
2022/11/18 09:03:01;;;;;;;3.75;0.70;;;24.40;53.50;;;;;;4123842;28;20376;-37
2022/11/18 09:05:23;;;;;;;6.03;0.80;;;24.40;53.50;;;;;;4126553;28;20038;-39
2022/11/18 09:07:46;;;;;;;6.63;0.68;;;24.30;53.70;;;;;;4132460;28;20184;-39
2022/11/18 09:10:09;;;;;;;3.55;0.80;;;24.40;53.70;;;;;;4130900;28;20517;-38
2022/11/18 09:12:31;;;;;;;7.33;1.33;;;24.40;53.70;;;;;;4128203;28;20135;-37
2022/11/18 09:14:54;;;;;;;3.15;0.82;;;24.40;53.70;;;;;;4124832;28;20070;-37
2022/11/18 09:17:17;;;;;;;5.43;1.05;;;24.40;53.70;;;;;;4123152;28;20030;-38
2022/11/18 09:19:39;;;;;;;3.67;0.68;;;24.30;53.60;;;;;;4123358;28;20092;-38
2022/11/18 09:22:02;;;;;;;1.63;0.57;;;24.40;53.70;;;;;;4125210;28;20030;-38
2022/11/18 09:24:25;;;;;;;5.77;0.73;;;24.30;53.70;;;;;;4124851;28;20074;-37
2022/11/18 09:26:48;;;;;;;3.58;0.80;;;24.30;53.70;;;;;;4126815;28;20124;-38
2022/11/18 09:29:11;;;;;;;4.72;1.17;;;24.30;53.80;;;;;;4125734;28;20041;-37
2022/11/18 09:31:33;;;;;;;4.85;0.70;;;24.30;53.70;;;;;;4126381;28;20042;-37
2022/11/18 09:33:59;;;;;;;5.20;0.90;;;24.30;53.80;;;;;;4125294;28;20041;-38
2022/11/18 09:36:25;;;;;;;3.60;0.80;;;24.30;53.80;;;;;;4125423;28;20046;-38
2022/11/18 09:38:48;;;;;;;2.75;0.77;;;24.30;53.80;;;;;;4124125;28;20441;-39
2022/11/18 09:41:53;;;;;;;3.10;0.60;;;24.40;53.80;;;;;;4092282;28;20216;-37
2022/11/18 09:44:21;;;;;;;4.45;0.60;;;24.30;53.70;;;;;;4121729;28;20057;-38
2022/11/18 09:47:11;;;;;;;1.90;0.80;;;24.30;53.70;;;;;;4125694;28;20445;-38
2022/11/18 09:49:39;;;;;;;18.85;2.63;;;24.40;53.30;;;;;;4122540;28;20030;-38
2022/11/18 09:52:10;;;;;;;14.43;2.10;;;24.30;53.10;;;;;;4120742;28;20030;-38
2022/11/18 09:54:36;;;;;;;13.20;1.90;;;24.30;52.60;;;;;;4120999;28;20124;-39
2022/11/18 09:56:58;;;;;;;8.32;1.42;;;24.30;52.50;;;;;;4129836;28;20042;-38
2022/11/18 09:59:24;;;;;;;4.05;0.85;;;24.30;52.90;;;;;;4132671;28;20497;-39
2022/11/18 10:01:49;;;;;;;9.85;1.25;;;24.20;53.00;;;;;;4126889;28;20093;-41
2022/11/18 10:04:14;;;;;;;6.43;0.90;;;24.20;53.70;;;;;;4123859;28;20046;-40
2022/11/18 10:06:37;;;;;;;6.05;1.10;;;24.10;54.10;;;;;;4114479;28;20038;-41
2022/11/18 10:09:12;;;;;;;7.40;1.05;;;24.10;54.30;;;;;;4131538;28;20069;-43
2022/11/18 10:11:58;;;;;;;6.18;1.10;;;24.00;54.50;;;;;;4132791;28;20528;-52
2022/11/18 10:15:17;;;;;;;2.22;0.80;;;24.10;54.40;;;;;;4132909;28;20053;-54
2022/11/18 10:17:58;;;;;;;3.15;0.60;;;24.10;54.60;;;;;;4064329;29;20035;-56
2022/11/18 10:20:50;;;;;;;1.27;0.50;;;24.00;54.60;;;;;;4055177;29;20036;-56
2022/11/18 10:29:00;;;;;;;10.32;1.30;;;24.10;54.70;;;;;;4086658;28;20322;-49
2022/11/18 10:31:22;;;;;;;17.90;1.88;;;24.20;54.90;;;;;;4131617;28;20042;-46
2022/11/18 10:33:45;;;;;;;5.25;1.38;;;24.20;55.30;;;;;;4123683;28;20050;-48
2022/11/18 10:36:14;;;;;;;11.38;1.83;;;24.20;55.60;;;;;;4131875;28;20160;-56
2022/11/18 10:38:37;;;;;;;7.75;1.52;;;24.20;55.60;;;;;;4119976;28;20533;-52
2022/11/18 10:41:02;;;;;;;3.92;0.68;;;24.20;55.70;;;;;;4122374;28;20528;-50
2022/11/18 10:43:49;;;;;;;5.75;1.65;;;24.20;55.50;;;;;;4127088;28;20436;-45
2022/11/18 10:46:33;;;;;;;3.25;0.65;;;24.30;55.30;;;;;;4121235;28;20054;-44
2022/11/18 10:49:22;;;;;;;5.20;1.20;;;24.30;55.30;;;;;;4118607;28;20080;-44
2022/11/18 10:52:04;;;;;;;4.85;1.05;;;24.30;55.10;;;;;;4126704;28;20283;-44
2022/11/18 10:54:27;;;;;;;4.63;0.95;;;24.30;55.00;;;;;;4131254;28;20050;-45
2022/11/18 10:57:01;;;;;;;6.15;1.15;;;24.30;54.80;;;;;;4122999;28;20502;-46
2022/11/18 10:59:26;;;;;;;;;;;24.40;54.80;;;;;;4129113;28;20037;-48
2022/11/18 11:02:09;;;;;;;6.90;1.25;;;24.40;54.70;;;;;;4130979;28;20378;-50
2022/11/18 11:04:33;;;;;;;8.00;1.25;;;24.40;54.50;;;;;;4128148;28;20038;-48
2022/11/18 11:06:58;;;;;;;2.30;0.85;;;24.30;54.40;;;;;;4126229;28;20464;-50
2022/11/18 11:09:29;;;;;;;8.57;1.40;;;24.30;54.50;;;;;;4125570;28;20034;-48
2022/11/18 11:12:03;;;;;;;3.13;0.90;;;24.30;54.50;;;;;;4128047;28;20487;-45
2022/11/18 11:14:29;;;;;;;6.53;1.05;;;24.30;54.20;;;;;;4127735;28;20084;-51
2022/11/18 11:17:13;;;;;;;5.15;1.20;;;24.30;53.10;;;;;;4128087;28;20115;-50
2022/11/18 11:20:03;;;;;;;4.35;0.77;;;24.30;53.30;;;;;;4127189;28;20096;-55
2022/11/18 11:22:26;;;;;;;3.15;1.10;;;24.30;53.40;;;;;;4130205;28;20048;-50
2022/11/18 11:24:48;;;;;;;2.03;0.75;;;24.30;53.40;;;;;;4126216;28;20054;-52
2022/11/18 11:27:35;;;;;;;1.80;0.95;;;24.20;53.30;;;;;;4126810;28;20038;-50
2022/11/18 11:30:08;;;;;;;1.55;0.70;;;24.20;53.20;;;;;;4125942;28;20113;-52
2022/11/18 11:32:57;;;;;;;7.88;0.98;;;24.20;53.10;;;;;;4110863;28;20054;-50
2022/11/18 11:35:47;;;;;;;6.88;1.30;;;24.20;53.80;;;;;;4129364;28;20509;-46
2022/11/18 11:38:21;;;;;;;7.30;1.13;;;24.20;53.90;;;;;;4130061;28;20510;-49
2022/11/18 11:41:06;;;;;;;1.05;0.65;;;24.10;54.00;;;;;;4124118;28;20112;-47
2022/11/18 11:43:59;;;;;;;5.47;0.80;;;24.10;54.10;;;;;;4127163;28;20042;-49
2022/11/18 11:47:45;;;;;;;2.33;1.02;;;24.10;54.30;;;;;;4117288;28;20554;-51
2022/11/18 11:49:48;;;;;;;8.93;1.33;;;24.00;54.50;;;;;;4127974;28;20057;-48
2022/11/18 11:52:19;;;;;;;3.05;0.88;;;24.10;55.10;;;;;;4128455;28;20153;-49
2022/11/18 11:55:04;;;;;;;3.03;0.98;;;24.10;54.50;;;;;;4125459;28;20042;-52
2022/11/18 11:57:43;;;;;;;;;;;24.00;54.40;;;;;;4124609;28;20509;-52
2022/11/18 12:00:15;;;;;;;2.28;0.70;;;24.00;54.40;;;;;;4124882;28;19913;-51
2022/11/18 12:02:54;;;;;;;2.22;1.08;;;23.90;54.50;;;;;;4126334;28;20555;-52
2022/11/18 12:05:32;;;;;;;3.63;1.27;;;23.90;54.60;;;;;;4125963;28;20487;-52
2022/11/18 12:08:00;;;;;;;4.53;0.95;;;23.90;54.60;;;;;;4125560;28;20041;-51
2022/11/18 12:10:53;;;;;;;2.78;0.70;;;23.90;54.70;;;;;;4125295;28;20038;-52
2022/11/18 12:13:45;;;;;;;1.85;0.77;;;23.80;54.70;;;;;;4125137;28;20179;-53
2022/11/18 12:16:32;;;;;;;2.50;0.73;;;23.80;54.70;;;;;;4127623;28;20045;-54
2022/11/18 12:19:24;;;;;;;3.42;0.80;;;23.80;54.70;;;;;;4131638;28;20510;-53
2022/11/18 12:21:47;;;;;;;1.45;0.70;;;23.80;54.70;;;;;;4124526;28;20038;-55
2022/11/18 12:24:30;;;;;;;1.98;0.80;;;23.80;54.70;;;;;;4131525;28;20104;-50
2022/11/18 12:26:53;;;;;;;2.75;0.90;;;23.70;54.80;;;;;;4130509;28;20078;-51
2022/11/18 12:29:28;;;;;;;6.85;1.80;;;23.70;54.90;;;;;;4128943;28;20063;-51
2022/11/18 12:31:57;;;;;;;2.55;0.95;;;23.70;55.00;;;;;;4130868;28;20137;-50
2022/11/18 12:34:25;;;;;;;2.78;0.85;;;23.70;55.00;;;;;;4131806;28;20577;-49
2022/11/18 12:36:48;;;;;;;5.45;1.17;;;23.70;55.00;;;;;;4131780;28;20128;-51
2022/11/18 12:39:28;;;;;;;3.15;0.73;;;23.70;55.00;;;;;;4133198;28;20049;-49
2022/11/18 12:44:32;;;;;;;3.08;0.93;;;23.60;54.90;;;;;;4130669;28;20099;-53
2022/11/18 12:46:56;;;;;;;4.38;0.73;;;23.60;55.00;;;;;;4129927;28;20042;-52
2022/11/18 12:49:21;;;;;;;2.22;0.90;;;23.60;55.00;;;;;;4129583;28;20074;-50
2022/11/18 12:51:45;;;;;;;2.17;0.82;;;23.60;55.00;;;;;;4130155;28;20044;-47
2022/11/18 12:54:25;;;;;;;3.28;0.90;;;23.60;55.10;;;;;;4128936;28;20537;-50
2022/11/18 12:56:48;;;;;;;2.97;1.02;;;23.50;55.00;;;;;;4124193;28;20441;-50
2022/11/18 12:59:12;;;;;;;2.20;0.80;;;23.50;55.00;;;;;;4129861;28;20073;-49
2022/11/18 13:01:35;;;;;;;5.72;0.95;;;23.50;55.10;;;;;;4127462;28;20643;-51
2022/11/18 13:04:13;;;;;;;1.17;0.70;;;23.50;55.10;;;;;;4130975;28;20069;-52
2022/11/18 13:06:38;;;;;;;3.42;1.00;;;23.50;55.20;;;;;;4128803;28;20510;-50
2022/11/18 13:09:18;;;;;;;1.85;0.73;;;23.40;55.20;;;;;;4129558;28;20030;-50
2022/11/18 13:11:51;;;;;;;2.80;1.10;;;23.50;55.30;;;;;;4131483;28;20045;-49
2022/11/18 13:19:37;;;;;;;1.02;0.60;;;23.40;55.30;;;;;;4128491;28;20378;-50
2022/11/18 13:24:52;;;;;;;1.95;0.52;;;23.40;56.00;;;;;;4128136;28;20057;-53
2022/11/18 13:27:38;;;;;;;1.40;0.52;;;23.40;55.40;;;;;;4128918;28;20037;-55